• Join FlightAware (Why Join?)
  • Login
  • US Flag 
05:48AM EDT


 

Airport Tracker/Info


-or-


 

Live Flight TrackerFlight Track Log ✈ C-FWFK ✈ 09-Apr-2014 ✈ CYKZ - CYKZ

Flight Track Log - Related Links

Times and Time Zones

All times are in EDT time to prevent confusion due to time zone crossing. See the C-FWFK flight status page for this flight to view local times or setup timezone preferences in your user account.

Time Position Orientation Groundspeed Altitude Reporting Facility
EDT Latitude Longitude Course Direction KTS MPH feet Rate Location/Type
02:39PM 43.8622 -79.3700 251° West  Level Estimated
02:39PM 43.9000 -79.1500 90° East 110 127 3,000  Level Toronto Center
02:40PM 43.9000 -79.1167 90° East 120 138 2,900 240 Descending Toronto Center
02:41PM 43.9000 -79.0833 90° East 110 127 3,500 540 Climbing Toronto Center
02:42PM 43.9000 -79.0333 90° East 100 115 4,000 180 Climbing Toronto Center
02:43PM 43.9167 -78.9833 65° Northeast 120 138 3,900 -60 Descending Toronto Center
02:45PM 43.8622 -79.3700 90° East  Level Estimated
02:45PM 43.9000 -78.9000 105° East 110 127 3,900  Level Toronto Center
02:46PM 43.9167 -78.8667 55° Northeast 110 127 4,000 120 Climbing Toronto Center
02:47PM 43.9167 -78.8167 90° East 110 127 4,200  Climbing Toronto Center
02:48PM 43.8833 -78.8500 216° Southwest 100 115 4,000 -120 Descending Toronto Center
02:49PM 43.9000 -78.8667 324° Northwest 80 92 4,000 -60 Level Toronto Center
02:50PM 43.9167 -78.9000 305° West 80 92 3,900  Descending Toronto Center
02:51PM 43.9167 -78.8500 90° East 90 104 4,000  Climbing Toronto Center
02:52PM 43.9000 -78.8167 125° Southeast 110 127 4,000  Level Toronto Center
02:53PM 43.9000 -78.8500 270° West 80 92 4,000 -60 Level Toronto Center
02:55PM 43.9167 -78.8667 324° Northwest 70 81 3,900  Descending Toronto Center
02:57PM 43.9000 -78.8500 144° Southeast 90 104 4,100 60 Climbing Toronto Center
02:58PM 43.9167 -78.8667 324° Northwest 80 92 4,200 -120 Climbing Toronto Center
02:59PM 43.9333 -78.8500 36° Northeast 90 104 3,900 -420 Descending Toronto Center
03:01PM 43.9167 -78.7500 103° East 120 138 3,000 -360 Descending Toronto Center
03:02PM 43.9000 -78.7000 115° Southeast 120 138 2,900 -240 Descending Toronto Center
03:06PM 43.8667 -78.7000 264° West 70 81 2,000 -180 Descending Toronto Center
03:08PM 43.8833 -78.7500 295° West 80 92 2,000 -60 Level Toronto Center
03:15PM 43.9167 -78.9000 266° West 110 127 1,800  Descending Toronto Center
03:16PM 43.9167 -78.9167 270° West 70 81 2,300 360 Climbing Toronto Center
03:18PM 43.9167 -78.9667 270° West 80 92 3,000 180 Climbing Toronto Center
03:19PM 43.8833 -78.9833 200° South 110 127 2,900 -60 Descending Toronto Center
03:20PM 43.8650 -79.0976 266° West  Level FlightAware Approximate
03:20PM 43.8667 -78.9833 180° South 90 104 2,900  Level Toronto Center
03:21PM 43.8500 -78.9333 115° Southeast 100 115 2,900  Level Toronto Center
03:22PM 43.8500 -78.9167 90° East 90 104 2,900  Level Toronto Center
03:23PM 43.8333 -78.9000 144° Southeast 100 115 3,000  Climbing Toronto Center
03:24PM 43.8333 -78.8500 90° East 100 115 3,000  Level Toronto Center
03:25PM 43.8333 -78.8000 90° East 100 115 3,000 -60 Level Toronto Center
03:26PM 43.8167 -78.7833 144° Southeast 100 115 2,900  Descending Toronto Center
03:29PM 43.8667 -78.7000 287° West 80 92 3,000 -60 Climbing Toronto Center
03:30PM 43.8667 -78.7333 270° West 70 81 2,800 -360 Descending Toronto Center
03:31PM 43.8833 -78.7500 324° Northwest 70 81 2,300 -420 Descending Toronto Center
03:32PM 43.8833 -78.7833 270° West 70 81 2,000 -300 Descending Toronto Center
03:33PM 43.9000 -78.8000 324° Northwest 70 81 1,700 -180 Descending Toronto Center
03:34PM 43.9000 -78.8167 270° West 70 81 1,700 120 Level Toronto Center
03:38PM 43.9167 -78.9167 263° West 60 69 2,500 240 Climbing Toronto Center
03:39PM 43.9167 -78.9333 270° West 70 81 3,000 300 Climbing Toronto Center
03:40PM 43.9000 -78.9667 235° Southwest 90 104 3,100 -60 Climbing Toronto Center
03:42PM 43.8500 -79.0167 216° Southwest 100 115 2,900 -60 Descending Toronto Center
03:45PM 43.8000 -79.1000 270° West 90 104 3,000  Climbing Toronto Center
03:46PM 43.7833 -79.1167 216° Southwest 90 104 3,100  Climbing Toronto Center
03:47PM 43.7667 -79.1500 235° Southwest 90 104 3,100 -120 Level Toronto Center
03:49PM 43.7333 -79.2000 227° Southwest 80 92 2,800 -240 Descending Toronto Center
03:53PM 43.7833 -79.2833 270° West 80 92 1,700 -240 Descending Toronto Center
03:57PM 43.8333 -79.3333 73° East 60 69 900 -240 Descending Toronto Center
03:58PM 43.8500 -79.3667 270° West  Level FlightAware Approximate
04:02PM 43.8622 -79.3700 73° East  Level Estimated